^^
Datos históricos de la estación: Murcia-Puente Tocinos
Diario Informe para Junio 18, 2019 Unidades:  Ambas    Ingés   Métrico
Diario Semanal Mensual Anual
  Máxima: Mínima: Promedio:
Temperatura: 92.3 °F /  33.5 °C 72.9 °F /  22.7 °C 80.8 °F /  27.1 °C
Punto de rocio: 68 °F /  20 °C 53.2 °F /  11.8 °C 63.5 °F /  17.5 °C
Humedad: 82% 27% 59%
Velocidad viento: 10mph /  16.1km/h - 4.2mph /  6.8km/h
Racha viento: 17.3mph /  27.8km/h - -
Viento- - ESE
Presión: 29.9 in /  1013.5 hPa 29.9 in /  1010.8 hPa -
Precipitación: 0 in /  0.0 mm    
 
 
Tabla de datos para Junio 18, 2019
Hora Temperatura Punto de rocio Presión Viento Velocidad viento Racha viento Humedad Intensidad lluvia(por hora) Nubes
00:04 76.6 °F /  24.8 °C 66.7 °F /  19.3 °C 29.9in /  1011.8hPa NE 7.4mph /  11.9km/h 12mph /  19.3km/h 71.4% 0in /  0.0mm
00:09 76.8 °F /  24.9 °C 66.7 °F /  19.3 °C 29.9in /  1011.8hPa NE 6.6mph /  10.6km/h 9mph /  14.5km/h 71% 0in /  0.0mm
00:14 76.8 °F /  24.9 °C 66.7 °F /  19.3 °C 29.9in /  1011.8hPa NE 4.7mph /  7.6km/h 7mph /  11.3km/h 71% 0in /  0.0mm
00:19 76.8 °F /  24.9 °C 66.7 °F /  19.3 °C 29.9in /  1012.1hPa ENE 4.4mph /  7.1km/h 7mph /  11.3km/h 71% 0in /  0.0mm
00:24 76.8 °F /  24.9 °C 66.7 °F /  19.3 °C 29.9in /  1012.1hPa ENE 3.6mph /  5.8km/h 5mph /  8km/h 71% 0in /  0.0mm
00:29 76.8 °F /  24.9 °C 66.6 °F /  19.2 °C 29.9in /  1012.1hPa ESE 2.5mph /  4km/h 4.6mph /  7.4km/h 70.7% 0in /  0.0mm
00:34 76.8 °F /  24.9 °C 66.4 °F /  19.1 °C 29.9in /  1012.1hPa Calm   5mph /  8km/h 70% 0in /  0.0mm
00:39 77 °F /  25 °C 66.6 °F /  19.2 °C 29.9in /  1012.0hPa NNE 0.5mph /  0.8km/h 4.7mph /  7.6km/h 70.3% 0in /  0.0mm
00:44 76.8 °F /  24.9 °C 66.7 °F /  19.3 °C 29.9in /  1012.0hPa North 1.8mph /  2.9km/h 5mph /  8km/h 71% 0in /  0.0mm
00:49 76.8 °F /  24.9 °C 66.6 °F /  19.2 °C 29.9in /  1012.4hPa NNE 2mph /  3.2km/h 5mph /  8km/h 71% 0in /  0.0mm
00:54 76.6 °F /  24.8 °C 66.7 °F /  19.3 °C 29.9in /  1012.4hPa North 2.4mph /  3.9km/h 5.2mph /  8.4km/h 71.4% 0in /  0.0mm
00:59 76.5 °F /  24.7 °C 66.7 °F /  19.3 °C 29.9in /  1012.4hPa North 2.4mph /  3.9km/h 5.2mph /  8.4km/h 72% 0in /  0.0mm
01:04 76.1 °F /  24.5 °C 66.7 °F /  19.3 °C 29.9in /  1012.5hPa North 2.4mph /  3.9km/h 5mph /  8km/h 72.9% 0in /  0.0mm
01:09 75.9 °F /  24.4 °C 66.6 °F /  19.2 °C 29.9in /  1012.5hPa NE 2.3mph /  3.7km/h 5mph /  8km/h 73% 0in /  0.0mm
01:14 75.7 °F /  24.3 °C 66.7 °F /  19.3 °C 29.9in /  1012.5hPa NNO 2mph /  3.2km/h 3mph /  4.8km/h 73.4% 0in /  0.0mm
01:19 75.7 °F /  24.3 °C 66.9 °F /  19.4 °C 29.9in /  1012.6hPa ONO 1.4mph /  2.3km/h   74% 0in /  0.0mm
01:24 75.7 °F /  24.3 °C 66.9 °F /  19.4 °C 29.9in /  1012.6hPa Calm   1.8mph /  2.9km/h 74% 0in /  0.0mm
01:29 75.7 °F /  24.3 °C 66.9 °F /  19.4 °C 29.9in /  1012.6hPa NO 0.4mph /  0.7km/h 4.6mph /  7.4km/h 74% 0in /  0.0mm
01:34 75.7 °F /  24.3 °C 66.9 °F /  19.4 °C 29.9in /  1012.6hPa NO 1.4mph /  2.2km/h 5mph /  8km/h 74% 0in /  0.0mm
01:39 75.7 °F /  24.3 °C 66.9 °F /  19.4 °C 29.9in /  1012.5hPa NO 1.5mph /  2.4km/h 4.6mph /  7.4km/h 74% 0in /  0.0mm
01:44 75.7 °F /  24.3 °C 66.9 °F /  19.4 °C 29.9in /  1012.5hPa NO 1.8mph /  2.9km/h 5mph /  8km/h 74% 0in /  0.0mm
01:49 75.7 °F /  24.3 °C 66.9 °F /  19.4 °C 29.9in /  1012.5hPa NO 1.7mph /  2.7km/h 3mph /  4.8km/h 74% 0in /  0.0mm
01:54 75.7 °F /  24.3 °C 66.9 °F /  19.4 °C 29.9in /  1012.4hPa NNO 1.4mph /  2.2km/h 3mph /  4.8km/h 74% 0in /  0.0mm
01:59 75.7 °F /  24.3 °C 66.9 °F /  19.4 °C 29.9in /  1012.4hPa North 0.9mph /  1.5km/h 3.5mph /  5.6km/h 74% 0in /  0.0mm
02:04 75.7 °F /  24.3 °C 66.9 °F /  19.4 °C 29.9in /  1012.5hPa Calm   5.2mph /  8.4km/h 74% 0in /  0.0mm
02:09 75.7 °F /  24.3 °C 67.1 °F /  19.5 °C 29.9in /  1012.5hPa NO 0.7mph /  1.2km/h 5mph /  8km/h 74.6% 0in /  0.0mm
02:14 75.6 °F /  24.2 °C 67.1 °F /  19.5 °C 29.9in /  1012.5hPa NO 2.4mph /  3.9km/h 5mph /  8km/h 75% 0in /  0.0mm
02:19 75.6 °F /  24.2 °C 67.1 °F /  19.5 °C 29.9in /  1012.5hPa NNO 1.7mph /  2.7km/h 4.6mph /  7.4km/h 75% 0in /  0.0mm
02:24 75.6 °F /  24.2 °C 67.1 °F /  19.5 °C 29.9in /  1012.4hPa Calm   5mph /  8km/h 75% 0in /  0.0mm
02:29 75.4 °F /  24.1 °C 66.9 °F /  19.4 °C 29.9in /  1012.4hPa NE 0.5mph /  0.8km/h 5mph /  8km/h 75% 0in /  0.0mm
02:34 75.4 °F /  24.1 °C 66.9 °F /  19.4 °C 29.9in /  1012.4hPa NE 1.8mph /  2.9km/h 5mph /  8km/h 75% 0in /  0.0mm
02:39 75.4 °F /  24.1 °C 66.9 °F /  19.4 °C 29.9in /  1012.3hPa NE 2.2mph /  3.6km/h 5.9mph /  9.5km/h 75% 0in /  0.0mm
02:44 75.2 °F /  24 °C 66.7 °F /  19.3 °C 29.9in /  1012.3hPa NE 3.1mph /  5km/h 6mph /  9.7km/h 75% 0in /  0.0mm
02:49 74.8 °F /  23.8 °C 66.7 °F /  19.3 °C 29.9in /  1012.3hPa NE 3.1mph /  5km/h 5.2mph /  8.4km/h 75.7% 0in /  0.0mm
02:54 74.7 °F /  23.7 °C 66.7 °F /  19.3 °C 29.9in /  1012.2hPa NE 3.1mph /  5km/h 5mph /  8km/h 76% 0in /  0.0mm
02:59 74.7 °F /  23.7 °C 66.7 °F /  19.3 °C 29.9in /  1012.2hPa NE 3mph /  4.9km/h 5.2mph /  8.4km/h 76.5% 0in /  0.0mm
03:04 74.5 °F /  23.6 °C 66.7 °F /  19.3 °C 29.9in /  1012.2hPa NE 2.9mph /  4.7km/h 5.2mph /  8.4km/h 77% 0in /  0.0mm
03:09 74.5 °F /  23.6 °C 66.7 °F /  19.3 °C 29.9in /  1012.2hPa NE 3.1mph /  5km/h 5.9mph /  9.5km/h 77% 0in /  0.0mm
03:14 74.3 °F /  23.5 °C 66.7 °F /  19.3 °C 29.9in /  1012.2hPa NE 3.6mph /  5.8km/h 6mph /  9.7km/h 77.2% 0in /  0.0mm
03:19 74.1 °F /  23.4 °C 66.7 °F /  19.3 °C 29.9in /  1012.2hPa NE 3.6mph /  5.8km/h 6mph /  9.7km/h 77.8% 0in /  0.0mm
03:24 73.9 °F /  23.3 °C 66.6 °F /  19.2 °C 29.9in /  1012.2hPa NNE 3.6mph /  5.8km/h 6.2mph /  10km/h 78% 0in /  0.0mm
03:29 73.8 °F /  23.2 °C 66.6 °F /  19.2 °C 29.9in /  1012.2hPa NE 3.4mph /  5.5km/h 6mph /  9.7km/h 78% 0in /  0.0mm
03:34 73.6 °F /  23.1 °C 66.4 °F /  19.1 °C 29.9in /  1012.2hPa NE 3.1mph /  5km/h 5.9mph /  9.5km/h 78.2% 0in /  0.0mm
03:39 73.6 °F /  23.1 °C 66.6 °F /  19.2 °C 29.9in /  1012.0hPa NE 3.2mph /  5.2km/h 6mph /  9.7km/h 78.8% 0in /  0.0mm
03:44 73.4 °F /  23 °C 66.6 °F /  19.2 °C 29.9in /  1012.0hPa NE 3.6mph /  5.8km/h 6.9mph /  11.1km/h 79% 0in /  0.0mm
03:49 73.2 °F /  22.9 °C 66.4 °F /  19.1 °C 29.9in /  1012.0hPa NE 3.7mph /  6km/h 7mph /  11.3km/h 79% 0in /  0.0mm
03:54 73.2 °F /  22.9 °C 66.2 °F /  19 °C 29.9in /  1011.9hPa NNE 4mph /  6.5km/h 7mph /  11.3km/h 79% 0in /  0.0mm
03:59 72.9 °F /  22.7 °C 66.2 °F /  19 °C 29.9in /  1011.9hPa NNE 4mph /  6.5km/h 6mph /  9.7km/h 79.5% 0in /  0.0mm
04:04 72.9 °F /  22.7 °C 66.2 °F /  19 °C 29.9in /  1012.0hPa NNE 4mph /  6.5km/h 6mph /  9.7km/h 80% 0in /  0.0mm
04:09 72.9 °F /  22.7 °C 66.2 °F /  19 °C 29.9in /  1012.0hPa North 3.4mph /  5.5km/h 4mph /  6.4km/h 80% 0in /  0.0mm
04:14 72.9 °F /  22.7 °C 66.4 °F /  19.1 °C 29.9in /  1012.0hPa NNO 2mph /  3.2km/h 3.6mph /  5.8km/h 80% 0in /  0.0mm
04:19 72.9 °F /  22.7 °C 66.4 °F /  19.1 °C 29.9in /  1012.0hPa North 1.8mph /  2.9km/h 4.6mph /  7.4km/h 80.4% 0in /  0.0mm
04:24 72.9 °F /  22.7 °C 66.7 °F /  19.3 °C 29.9in /  1012.0hPa NNO 1.4mph /  2.2km/h 5.2mph /  8.4km/h 81% 0in /  0.0mm
04:29 72.9 °F /  22.7 °C 66.7 °F /  19.3 °C 29.9in /  1012.0hPa NO 1.7mph /  2.7km/h 5mph /  8km/h 81% 0in /  0.0mm
04:34 72.9 °F /  22.7 °C 66.7 °F /  19.3 °C 29.9in /  1012.1hPa North 2.4mph /  3.9km/h 5mph /  8km/h 81% 0in /  0.0mm
04:39 72.9 °F /  22.7 °C 66.7 °F /  19.3 °C 29.9in /  1012.1hPa North 2.2mph /  3.6km/h 3.5mph /  5.6km/h 81% 0in /  0.0mm
04:44 72.9 °F /  22.7 °C 66.7 °F /  19.3 °C 29.9in /  1012.1hPa NNO 1.8mph /  2.9km/h 3mph /  4.8km/h 81% 0in /  0.0mm
04:49 73 °F /  22.8 °C 66.9 °F /  19.4 °C 29.9in /  1012.3hPa NNO 1.2mph /  2km/h 2mph /  3.2km/h 81% 0in /  0.0mm
04:54 73 °F /  22.8 °C 66.9 °F /  19.4 °C 29.9in /  1012.3hPa Calm   4mph /  6.4km/h 81% 0in /  0.0mm
04:59 73 °F /  22.8 °C 66.9 °F /  19.4 °C 29.9in /  1012.3hPa NO 0.5mph /  0.8km/h 5mph /  8km/h 81% 0in /  0.0mm
05:04 73 °F /  22.8 °C 66.9 °F /  19.4 °C 29.9in /  1012.3hPa NO 1.4mph /  2.2km/h 5mph /  8km/h 81% 0in /  0.0mm
05:09 73.2 °F /  22.9 °C 66.9 °F /  19.4 °C 29.9in /  1012.2hPa NO 1.5mph /  2.4km/h 5mph /  8km/h 81% 0in /  0.0mm
05:14 73.2 °F /  22.9 °C 66.9 °F /  19.4 °C 29.9in /  1012.2hPa NO 1.8mph /  2.9km/h 3mph /  4.8km/h 81% 0in /  0.0mm
05:19 73.2 °F /  22.9 °C 66.9 °F /  19.4 °C 29.9in /  1012.2hPa NO 1.3mph /  2.1km/h 2.3mph /  3.7km/h 81% 0in /  0.0mm
05:24 73 °F /  22.8 °C 66.9 °F /  19.4 °C 29.9in /  1012.1hPa Calm   3.5mph /  5.6km/h 81% 0in /  0.0mm
05:29 73 °F /  22.8 °C 66.9 °F /  19.4 °C 29.9in /  1012.1hPa NO 0.6mph /  1km/h 3.5mph /  5.6km/h 81.1% 0in /  0.0mm
05:34 73 °F /  22.8 °C 67.3 °F /  19.6 °C 29.9in /  1012.1hPa NO 2mph /  3.2km/h 3.6mph /  5.8km/h 82% 0in /  0.0mm
05:39 73 °F /  22.8 °C 67.1 °F /  19.5 °C 29.9in /  1012.0hPa Oeste 2mph /  3.2km/h 4.6mph /  7.4km/h 82% 0in /  0.0mm
05:44 72.9 °F /  22.7 °C 67.1 °F /  19.5 °C 29.9in /  1012.0hPa Oeste 2mph /  3.2km/h 5mph /  8km/h 82% 0in /  0.0mm
05:49 72.9 °F /  22.7 °C 66.9 °F /  19.4 °C 29.9in /  1012.0hPa Oeste 1.9mph /  3.1km/h 3mph /  4.8km/h 82% 0in /  0.0mm
05:54 72.9 °F /  22.7 °C 66.9 °F /  19.4 °C 29.9in /  1012.0hPa ONO 1.8mph /  2.9km/h 3mph /  4.8km/h 82% 0in /  0.0mm
05:59 72.9 °F /  22.7 °C 66.9 °F /  19.4 °C 29.9in /  1012.0hPa ONO 1.2mph /  1.9km/h 2.3mph /  3.7km/h 82% 0in /  0.0mm
06:04 72.9 °F /  22.7 °C 66.9 °F /  19.4 °C 29.9in /  1012.0hPa Calm   2.4mph /  3.9km/h 82% 0in /  0.0mm
06:09 72.9 °F /  22.7 °C 66.9 °F /  19.4 °C 29.9in /  1012.0hPa Calm   2.3mph /  3.7km/h 82% 0in /  0.0mm
06:14 72.9 °F /  22.7 °C 66.9 °F /  19.4 °C 29.9in /  1012.0hPa Calm   2.9mph /  4.7km/h 82% 0in /  0.0mm
06:19 72.9 °F /  22.7 °C 66.9 °F /  19.4 °C 29.9in /  1012.0hPa Calm   3mph /  4.8km/h 82% 0in /  0.0mm
06:24 72.9 °F /  22.7 °C 66.9 °F /  19.4 °C 29.9in /  1012.0hPa Calm   2.9mph /  4.7km/h 82% 0in /  0.0mm
06:29 72.9 °F /  22.7 °C 66.9 °F /  19.4 °C 29.9in /  1012.0hPa ONO 0.4mph /  0.7km/h 3mph /  4.8km/h 82% 0in /  0.0mm
06:34 72.9 °F /  22.7 °C 66.9 °F /  19.4 °C 29.9in /  1012.1hPa ONO 1.4mph /  2.2km/h 3mph /  4.8km/h 82% 0in /  0.0mm
06:39 72.9 °F /  22.7 °C 66.9 °F /  19.4 °C 29.9in /  1012.1hPa ONO 1mph /  1.6km/h   82% 0in /  0.0mm
06:44 72.9 °F /  22.7 °C 66.7 °F /  19.3 °C 29.9in /  1012.1hPa Calm     81% 0in /  0.0mm
06:49 72.9 °F /  22.7 °C 66.9 °F /  19.4 °C 29.9in /  1012.1hPa Calm     81.4% 0in /  0.0mm
06:54 72.9 °F /  22.7 °C 66.9 °F /  19.4 °C 29.9in /  1012.1hPa Calm     82% 0in /  0.0mm
06:59 72.9 °F /  22.7 °C 66.9 °F /  19.4 °C 29.9in /  1012.1hPa Calm     82% 0in /  0.0mm
07:04 72.9 °F /  22.7 °C 66.9 °F /  19.4 °C 29.9in /  1012.2hPa Calm     82% 0in /  0.0mm
07:09 72.9 °F /  22.7 °C 66.9 °F /  19.4 °C 29.9in /  1012.2hPa Calm     82% 0in /  0.0mm
07:14 72.9 °F /  22.7 °C 66.9 °F /  19.4 °C 29.9in /  1012.2hPa Calm     81.7% 0in /  0.0mm
07:19 72.9 °F /  22.7 °C 66.6 °F /  19.2 °C 29.9in /  1012.4hPa ESE 0.4mph /  0.7km/h 4.6mph /  7.4km/h 80.6% 0in /  0.0mm
07:24 72.9 °F /  22.7 °C 66.2 °F /  19 °C 29.9in /  1012.4hPa SE 1.4mph /  2.2km/h 5mph /  8km/h 79.6% 0in /  0.0mm
07:29 73 °F /  22.8 °C 66 °F /  18.9 °C 29.9in /  1012.4hPa SSE 1.7mph /  2.7km/h 5mph /  8km/h 79% 0in /  0.0mm
07:34 73 °F /  22.8 °C 66 °F /  18.9 °C 29.9in /  1012.5hPa Sur 2.4mph /  3.9km/h 5mph /  8km/h 79% 0in /  0.0mm
07:39 73 °F /  22.8 °C 66.2 °F /  19 °C 29.9in /  1012.5hPa Sur 2.3mph /  3.7km/h 4mph /  6.4km/h 79% 0in /  0.0mm
07:44 73.4 °F /  23 °C 66.4 °F /  19.1 °C 29.9in /  1012.5hPa Sur 2mph /  3.2km/h 4.6mph /  7.4km/h 78.8% 0in /  0.0mm
07:49 73.6 °F /  23.1 °C 66.4 °F /  19.1 °C 29.9in /  1012.6hPa Sur 1.9mph /  3.1km/h 5mph /  8km/h 78% 0in /  0.0mm
07:54 73.8 °F /  23.2 °C 66.2 °F /  19 °C 29.9in /  1012.6hPa SSO 1.8mph /  2.9km/h 5.4mph /  8.7km/h 77.7% 0in /  0.0mm
07:59 73.8 °F /  23.2 °C 66.4 °F /  19.1 °C 29.9in /  1012.6hPa Sur 2.2mph /  3.5km/h 6mph /  9.7km/h 77.7% 0in /  0.0mm
08:04 73.8 °F /  23.2 °C 66.2 °F /  19 °C 29.9in /  1012.6hPa SSE 2.9mph /  4.7km/h 6.9mph /  11.1km/h 77.4% 0in /  0.0mm
08:09 73.8 °F /  23.2 °C 66.2 °F /  19 °C 29.9in /  1012.6hPa SSE 3.4mph /  5.4km/h 7mph /  11.3km/h 77.3% 0in /  0.0mm
08:14 73.8 °F /  23.2 °C 66.4 °F /  19.1 °C 29.9in /  1012.6hPa SSE 4.3mph /  6.9km/h 7mph /  11.3km/h 77.8% 0in /  0.0mm
08:19 73.8 °F /  23.2 °C 66.2 °F /  19 °C 29.9in /  1012.6hPa Sur 4.3mph /  6.9km/h 7mph /  11.3km/h 77.4% 0in /  0.0mm
08:24 73.8 °F /  23.2 °C 66.6 °F /  19.2 °C 29.9in /  1012.6hPa Sur 4.3mph /  6.9km/h 6mph /  9.7km/h 78% 0in /  0.0mm
08:29 73.9 °F /  23.3 °C 66.6 °F /  19.2 °C 29.9in /  1012.6hPa SE 4.1mph /  6.6km/h 6mph /  9.7km/h 78% 0in /  0.0mm
08:34 74.1 °F /  23.4 °C 66.7 °F /  19.3 °C 29.9in /  1012.8hPa SE 3.6mph /  5.8km/h 5mph /  8km/h 77.8% 0in /  0.0mm
08:39 74.7 °F /  23.7 °C 66.7 °F /  19.3 °C 29.9in /  1012.8hPa SSE 3.4mph /  5.5km/h 5.4mph /  8.7km/h 76.7% 0in /  0.0mm
08:44 74.8 °F /  23.8 °C 66.9 °F /  19.4 °C 29.9in /  1012.8hPa SSE 3.1mph /  5km/h 6mph /  9.7km/h 76% 0in /  0.0mm
08:49 75 °F /  23.9 °C 66.9 °F /  19.4 °C 29.9in /  1012.8hPa SE 3.1mph /  5km/h 6mph /  9.7km/h 76% 0in /  0.0mm
08:54 75 °F /  23.9 °C 66.9 °F /  19.4 °C 29.9in /  1012.8hPa Sur 3.1mph /  5km/h 6mph /  9.7km/h 76% 0in /  0.0mm
08:59 75.4 °F /  24.1 °C 67.1 °F /  19.5 °C 29.9in /  1012.8hPa SSO 3mph /  4.9km/h 5.8mph /  9.3km/h 75.5% 0in /  0.0mm
09:04 75.6 °F /  24.2 °C 67.1 °F /  19.5 °C 29.9in /  1013.1hPa Oeste 2.9mph /  4.7km/h 6mph /  9.7km/h 75% 0in /  0.0mm
09:09 75.7 °F /  24.3 °C 67.3 °F /  19.6 °C 29.9in /  1013.1hPa NO 2.7mph /  4.4km/h 5mph /  8km/h 75% 0in /  0.0mm
09:14 75.9 °F /  24.4 °C 67.1 °F /  19.5 °C 29.9in /  1013.1hPa NO 2.4mph /  3.9km/h 6.2mph /  10km/h 74.2% 0in /  0.0mm
09:19 76.3 °F /  24.6 °C 67.3 °F /  19.6 °C 29.9in /  1013.3hPa ONO 2.4mph /  3.9km/h 6mph /  9.7km/h 74% 0in /  0.0mm
09:24 76.5 °F /  24.7 °C 67.3 °F /  19.6 °C 29.9in /  1013.3hPa SSE 2.4mph /  3.9km/h 5mph /  8km/h 73.2% 0in /  0.0mm
09:29 76.6 °F /  24.8 °C 67.3 °F /  19.6 °C 29.9in /  1013.3hPa SE 2.4mph /  3.9km/h 5mph /  8km/h 73% 0in /  0.0mm
09:34 77 °F /  25 °C 67.6 °F /  19.8 °C 29.9in /  1013.4hPa Este 2.4mph /  3.9km/h 5mph /  8km/h 72.8% 0in /  0.0mm
09:39 77.4 °F /  25.2 °C 67.6 °F /  19.8 °C 29.9in /  1013.4hPa NNO 2.3mph /  3.7km/h 4.6mph /  7.4km/h 72.2% 0in /  0.0mm
09:44 77.7 °F /  25.4 °C 67.6 °F /  19.8 °C 29.9in /  1013.4hPa NNO 2mph /  3.2km/h 5mph /  8km/h 71.3% 0in /  0.0mm
09:49 77.9 °F /  25.5 °C 67.6 °F /  19.8 °C 29.9in /  1013.5hPa NO 2.1mph /  3.4km/h 5mph /  8km/h 70.7% 0in /  0.0mm
09:54 78.3 °F /  25.7 °C 67.8 °F /  19.9 °C 29.9in /  1013.5hPa NNO 2.4mph /  3.9km/h 4mph /  6.4km/h 70.5% 0in /  0.0mm
09:59 78.8 °F /  26 °C 67.8 °F /  19.9 °C 29.9in /  1013.5hPa NE 2.2mph /  3.5km/h 5.8mph /  9.3km/h 69.3% 0in /  0.0mm
10:04 79.2 °F /  26.2 °C 68 °F /  20 °C 29.9in /  1013.5hPa NE 1.8mph /  2.9km/h 6mph /  9.7km/h 68.6% 0in /  0.0mm
10:09 79.5 °F /  26.4 °C 67.8 °F /  19.9 °C 29.9in /  1013.5hPa ENE 2mph /  3.2km/h 5mph /  8km/h 67.7% 0in /  0.0mm
10:14 79.9 °F /  26.6 °C 67.5 °F /  19.7 °C 29.9in /  1013.5hPa ENE 2.4mph /  3.9km/h 5.8mph /  9.3km/h 66.2% 0in /  0.0mm
10:19 80.1 °F /  26.7 °C 67.5 °F /  19.7 °C 29.9in /  1013.5hPa NE 2.5mph /  4.1km/h 6mph /  9.7km/h 65.6% 0in /  0.0mm
10:24 80.1 °F /  26.7 °C 67.1 °F /  19.5 °C 29.9in /  1013.4hPa ENE 2.9mph /  4.7km/h 5mph /  8km/h 64.4% 0in /  0.0mm
10:29 80.2 °F /  26.8 °C 66.7 °F /  19.3 °C 29.9in /  1013.4hPa ENE 2.9mph /  4.7km/h 5.2mph /  8.4km/h 63.2% 0in /  0.0mm
10:34 80.6 °F /  27 °C 66.7 °F /  19.3 °C 29.9in /  1013.4hPa NE 2.9mph /  4.7km/h 5.2mph /  8.4km/h 63% 0in /  0.0mm
10:39 81.1 °F /  27.3 °C 66.6 °F /  19.2 °C 29.9in /  1013.4hPa NNE 2.7mph /  4.4km/h 5.4mph /  8.7km/h 61.6% 0in /  0.0mm
10:44 81.1 °F /  27.3 °C 66.9 °F /  19.4 °C 29.9in /  1013.4hPa NE 2.4mph /  3.9km/h 6mph /  9.7km/h 62.2% 0in /  0.0mm
10:49 81.1 °F /  27.3 °C 67.3 °F /  19.6 °C 29.9in /  1013.4hPa NNE 2.6mph /  4.2km/h 8.1mph /  13km/h 63% 0in /  0.0mm
10:54 81.3 °F /  27.4 °C 67.1 °F /  19.5 °C 29.9in /  1013.3hPa NNE 3.1mph /  5km/h 8mph /  12.9km/h 62% 0in /  0.0mm
10:59 81.7 °F /  27.6 °C 66.9 °F /  19.4 °C 29.9in /  1013.3hPa NNE 3.3mph /  5.3km/h 6.9mph /  11.1km/h 61.1% 0in /  0.0mm
11:04 81.7 °F /  27.6 °C 66.9 °F /  19.4 °C 29.9in /  1013.4hPa NE 3.6mph /  5.8km/h 7mph /  11.3km/h 61% 0in /  0.0mm
11:09 81.7 °F /  27.6 °C 66.9 °F /  19.4 °C 29.9in /  1013.4hPa ENE 3.6mph /  5.8km/h 6.2mph /  10km/h 60.9% 0in /  0.0mm
11:14 81.7 °F /  27.6 °C 66.9 °F /  19.4 °C 29.9in /  1013.4hPa NNE 3.6mph /  5.8km/h 8.1mph /  13km/h 60.8% 0in /  0.0mm
11:19 81.5 °F /  27.5 °C 66.7 °F /  19.3 °C 29.9in /  1013.4hPa ENE 4mph /  6.4km/h 9.2mph /  14.8km/h 60.8% 0in /  0.0mm
11:24 81.3 °F /  27.4 °C 66.6 °F /  19.2 °C 29.9in /  1013.4hPa NNE 4.7mph /  7.6km/h 9mph /  14.5km/h 60.9% 0in /  0.0mm
11:29 81.3 °F /  27.4 °C 66.2 °F /  19 °C 29.9in /  1013.4hPa NNE 4.9mph /  7.9km/h 10.4mph /  16.7km/h 60% 0in /  0.0mm
11:34 81.3 °F /  27.4 °C 66.2 °F /  19 °C 29.9in /  1013.5hPa NNE 5.4mph /  8.7km/h 10mph /  16.1km/h 60% 0in /  0.0mm
11:39 81.9 °F /  27.7 °C 66.4 °F /  19.1 °C 29.9in /  1013.5hPa NE 5mph /  8.1km/h 9mph /  14.5km/h 59.4% 0in /  0.0mm
11:44 82.2 °F /  27.9 °C 66 °F /  18.9 °C 29.9in /  1013.5hPa NE 4.3mph /  6.9km/h 9mph /  14.5km/h 58.1% 0in /  0.0mm
11:49 82.4 °F /  28 °C 65.8 °F /  18.8 °C 29.9in /  1013.5hPa ENE 4.4mph /  7.1km/h 10.7mph /  17.2km/h 57.4% 0in /  0.0mm
11:54 82.8 °F /  28.2 °C 65.5 °F /  18.6 °C 29.9in /  1013.5hPa NNE 4.7mph /  7.6km/h 11mph /  17.7km/h 56.1% 0in /  0.0mm
11:59 83.1 °F /  28.4 °C 65.3 °F /  18.5 °C 29.9in /  1013.5hPa NNE 4.7mph /  7.6km/h 10.4mph /  16.7km/h 55.3% 0in /  0.0mm
12:04 83.1 °F /  28.4 °C 65.5 °F /  18.6 °C 29.9in /  1013.5hPa North 4.7mph /  7.6km/h 10mph /  16.1km/h 55.1% 0in /  0.0mm
12:09 83.5 °F /  28.6 °C 65.7 °F /  18.7 °C 29.9in /  1013.5hPa NNE 4.8mph /  7.8km/h 11.8mph /  19km/h 55.1% 0in /  0.0mm
12:14 83.7 °F /  28.7 °C 65.7 °F /  18.7 °C 29.9in /  1013.5hPa NE 5.2mph /  8.4km/h 12mph /  19.3km/h 55% 0in /  0.0mm
12:19 84 °F /  28.9 °C 65.7 °F /  18.7 °C 29.9in /  1013.5hPa ENE 5mph /  8.1km/h 9.7mph /  15.6km/h 54.4% 0in /  0.0mm
12:24 84.4 °F /  29.1 °C 65.3 °F /  18.5 °C 29.9in /  1013.5hPa NNE 4.7mph /  7.6km/h 14.7mph /  23.7km/h 52.8% 0in /  0.0mm
12:29 84.4 °F /  29.1 °C 65.1 °F /  18.4 °C 29.9in /  1013.5hPa NNE 5.2mph /  8.3km/h 15mph /  24.1km/h 52.6% 0in /  0.0mm
12:34 84.9 °F /  29.4 °C 65.1 °F /  18.4 °C 29.9in /  1013.5hPa NE 6.2mph /  10km/h 11.5mph /  18.5km/h 51.8% 0in /  0.0mm
12:39 85.3 °F /  29.6 °C 64.6 °F /  18.1 °C 29.9in /  1013.4hPa NE 6.2mph /  10km/h 12mph /  19.3km/h 50.2% 0in /  0.0mm
12:44 85.5 °F /  29.7 °C 64.6 °F /  18.1 °C 29.9in /  1013.4hPa NNE 6.2mph /  10km/h 12.5mph /  20.1km/h 49.9% 0in /  0.0mm
12:49 85.6 °F /  29.8 °C 64.6 °F /  18.1 °C 29.9in /  1013.4hPa NE 6.1mph /  9.8km/h 16.1mph /  25.9km/h 49.5% 0in /  0.0mm
12:54 85.6 °F /  29.8 °C 64.8 °F /  18.2 °C 29.9in /  1013.3hPa NNE 5.9mph /  9.5km/h 16mph /  25.7km/h 49.6% 0in /  0.0mm
12:59 86 °F /  30 °C 64.2 °F /  17.9 °C 29.9in /  1013.3hPa NNE 6mph /  9.7km/h 12mph /  19.3km/h 48.4% 0in /  0.0mm
13:04 86.4 °F /  30.2 °C 64.2 °F /  17.9 °C 29.9in /  1013.3hPa NE 6.2mph /  10km/h 11.5mph /  18.5km/h 47.9% 0in /  0.0mm
13:09 86.5 °F /  30.3 °C 64.4 °F /  18 °C 29.9in /  1013.2hPa NE 6.2mph /  10km/h 14mph /  22.5km/h 47.7% 0in /  0.0mm
13:14 86.4 °F /  30.2 °C 64.4 °F /  18 °C 29.9in /  1013.2hPa NE 6.2mph /  10km/h 14mph /  22.5km/h 48.2% 0in /  0.0mm
13:19 86.5 °F /  30.3 °C 64.6 °F /  18.1 °C 29.9in /  1013.2hPa NE 6.6mph /  10.6km/h 13.8mph /  22.2km/h 48.2% 0in /  0.0mm
13:24 86.9 °F /  30.5 °C 65.5 °F /  18.6 °C 29.9in /  1013.0hPa NE 7.4mph /  11.9km/h 15mph /  24.1km/h 49% 0in /  0.0mm
13:29 87.1 °F /  30.6 °C 65.7 °F /  18.7 °C 29.9in /  1013.0hPa NE 7.8mph /  12.5km/h 15mph /  24.1km/h 49% 0in /  0.0mm
13:34 86.7 °F /  30.4 °C 65.3 °F /  18.5 °C 29.9in /  1013.0hPa NNE 8.5mph /  13.7km/h 13mph /  20.9km/h 48.8% 0in /  0.0mm
13:39 87.3 °F /  30.7 °C 64.9 °F /  18.3 °C 29.9in /  1012.8hPa Este 8.2mph /  13.2km/h 17.3mph /  27.8km/h 47.6% 0in /  0.0mm
13:44 87.4 °F /  30.8 °C 65.3 °F /  18.5 °C 29.9in /  1012.8hPa ENE 7.4mph /  11.9km/h 17mph /  27.4km/h 47.8% 0in /  0.0mm
13:49 87.6 °F /  30.9 °C 65.7 °F /  18.7 °C 29.9in /  1012.9hPa Este 7.6mph /  12.3km/h 14mph /  22.5km/h 48% 0in /  0.0mm
13:54 88 °F /  31.1 °C 64.8 °F /  18.2 °C 29.9in /  1012.9hPa ESE 8.1mph /  13km/h 12.7mph /  20.4km/h 46.1% 0in /  0.0mm
13:59 88.2 °F /  31.2 °C 64 °F /  17.8 °C 29.9in /  1012.9hPa SE 7.3mph /  11.8km/h 13mph /  20.9km/h 44.8% 0in /  0.0mm
14:04 88.5 °F /  31.4 °C 63.7 °F /  17.6 °C 29.9in /  1012.9hPa SE 5.9mph /  9.5km/h 16.1mph /  25.9km/h 43.9% 0in /  0.0mm
14:09 88.3 °F /  31.3 °C 63.5 °F /  17.5 °C 29.9in /  1012.8hPa ESE 6.7mph /  10.8km/h 16mph /  25.7km/h 43.9% 0in /  0.0mm
14:14 88.2 °F /  31.2 °C 63.3 °F /  17.4 °C 29.9in /  1012.8hPa SE 8.7mph /  14km/h 14mph /  22.5km/h 44% 0in /  0.0mm
14:19 88.5 °F /  31.4 °C 63.3 °F /  17.4 °C 29.9in /  1012.8hPa SE 8mph /  12.8km/h 14mph /  22.5km/h 43.2% 0in /  0.0mm
14:24 88.7 °F /  31.5 °C 63 °F /  17.2 °C 29.9in /  1012.7hPa ESE 6.4mph /  10.3km/h 14.5mph /  23.3km/h 42.3% 0in /  0.0mm
14:29 88.5 °F /  31.4 °C 62.4 °F /  16.9 °C 29.9in /  1012.7hPa ESE 6.7mph /  10.8km/h 15mph /  24.1km/h 41.9% 0in /  0.0mm
14:34 88.7 °F /  31.5 °C 62.2 °F /  16.8 °C 29.9in /  1012.7hPa ESE 7.4mph /  11.9km/h 13.5mph /  21.7km/h 41.3% 0in /  0.0mm
14:39 89.1 °F /  31.7 °C 61.5 °F /  16.4 °C 29.9in /  1012.5hPa ESE 7.5mph /  12km/h 14mph /  22.5km/h 39.9% 0in /  0.0mm
14:44 88.3 °F /  31.3 °C 60.6 °F /  15.9 °C 29.9in /  1012.5hPa Este 7.6mph /  12.2km/h 13mph /  20.9km/h 39.4% 0in /  0.0mm
14:49 88.5 °F /  31.4 °C 60.8 °F /  16 °C 29.9in /  1012.5hPa SE 7.2mph /  11.6km/h 15.2mph /  24.5km/h 39.4% 0in /  0.0mm
14:54 88.5 °F /  31.4 °C 60.3 °F /  15.7 °C 29.9in /  1012.4hPa SE 6.4mph /  10.3km/h 15mph /  24.1km/h 38.6% 0in /  0.0mm
14:59 88.9 °F /  31.6 °C 60.1 °F /  15.6 °C 29.9in /  1012.4hPa Este 6.3mph /  10.2km/h 14mph /  22.5km/h 38.3% 0in /  0.0mm
15:04 89.2 °F /  31.8 °C 59.7 °F /  15.4 °C 29.9in /  1012.4hPa Este 6.2mph /  10km/h 12mph /  19.3km/h 37.3% 0in /  0.0mm
15:09 89.4 °F /  31.9 °C 59.5 °F /  15.3 °C 29.9in /  1012.2hPa ENE 5.7mph /  9.2km/h 10.4mph /  16.7km/h 36.8% 0in /  0.0mm
15:14 89.8 °F /  32.1 °C 59.7 °F /  15.4 °C 29.9in /  1012.2hPa ESE 4.7mph /  7.6km/h 11.5mph /  18.5km/h 36.7% 0in /  0.0mm
15:19 90 °F /  32.2 °C 59.2 °F /  15.1 °C 29.9in /  1012.2hPa SSE 5.1mph /  8.2km/h 12.7mph /  20.4km/h 35.7% 0in /  0.0mm
15:24 90.3 °F /  32.4 °C 58.5 °F /  14.7 °C 29.9in /  1012.1hPa ESE 5.9mph /  9.5km/h 13mph /  20.9km/h 34.5% 0in /  0.0mm
15:29 90.3 °F /  32.4 °C 56.8 °F /  13.8 °C 29.9in /  1012.1hPa Este 6mph /  9.6km/h 12.3mph /  19.8km/h 32.4% 0in /  0.0mm
15:34 90.1 °F /  32.3 °C 55.4 °F /  13 °C 29.9in /  1012.1hPa ESE 6.2mph /  10km/h 13mph /  20.9km/h 30.9% 0in /  0.0mm
15:39 90.5 °F /  32.5 °C 54.7 °F /  12.6 °C 29.9in /  1012.0hPa SE 6.6mph /  10.6km/h 13mph /  20.9km/h 29.9% 0in /  0.0mm
15:44 90.7 °F /  32.6 °C 54.1 °F /  12.3 °C 29.9in /  1012.0hPa SE 7.6mph /  12.2km/h 13.8mph /  22.2km/h 29% 0in /  0.0mm
15:49 91 °F /  32.8 °C 53.6 °F /  12 °C 29.9in /  1012.0hPa ESE 7.5mph /  12.1km/h 15mph /  24.1km/h 28.2% 0in /  0.0mm
15:54 91.6 °F /  33.1 °C 53.6 °F /  12 °C 29.9in /  1011.8hPa ESE 7.4mph /  11.9km/h 15mph /  24.1km/h 27.7% 0in /  0.0mm
15:59 91.8 °F /  33.2 °C 53.2 °F /  11.8 °C 29.9in /  1011.8hPa SE 6.6mph /  10.7km/h 10.4mph /  16.7km/h 27.2% 0in /  0.0mm
16:04 91.9 °F /  33.3 °C 53.4 °F /  11.9 °C 29.9in /  1011.8hPa ESE 5.2mph /  8.4km/h 10.4mph /  16.7km/h 27.3% 0in /  0.0mm
16:05 91.9 °F /  33.3 °C 54.1 °F /  12.3 °C 29.9in /  1011.7hPa SE 5.2mph /  8.3km/h 10mph /  16.1km/h 28% 0in /  0.0mm
17:19 92.3 °F /  33.5 °C 53.4 °F /  11.9 °C 29.9in /  1011.3hPa ESE 7.1mph /  11.5km/h 11.5mph /  18.5km/h 27% 0in /  0.0mm
17:24 92.1 °F /  33.4 °C 53.8 °F /  12.1 °C 29.9in /  1011.2hPa Este 6.4mph /  10.3km/h 15mph /  24.1km/h 27.5% 0in /  0.0mm
17:29 92.1 °F /  33.4 °C 54.5 °F /  12.5 °C 29.9in /  1011.2hPa Este 6.3mph /  10.1km/h 15mph /  24.1km/h 28.2% 0in /  0.0mm
17:34 91.9 °F /  33.3 °C 55 °F /  12.8 °C 29.9in /  1011.2hPa ESE 5.9mph /  9.5km/h 14mph /  22.5km/h 28.9% 0in /  0.0mm
17:39 91.8 °F /  33.2 °C 54.9 °F /  12.7 °C 29.9in /  1011.1hPa ESE 6.6mph /  10.7km/h 14mph /  22.5km/h 28.9% 0in /  0.0mm
17:44 91.6 °F /  33.1 °C 55 °F /  12.8 °C 29.9in /  1011.1hPa ESE 8.7mph /  14km/h 15mph /  24.1km/h 29.1% 0in /  0.0mm
17:49 91 °F /  32.8 °C 55.2 °F /  12.9 °C 29.9in /  1011.1hPa ESE 8.5mph /  13.7km/h 15mph /  24.1km/h 29.8% 0in /  0.0mm
17:54 91 °F /  32.8 °C 54.9 °F /  12.7 °C 29.9in /  1011.1hPa Este 8.1mph /  13km/h 13mph /  20.9km/h 29.5% 0in /  0.0mm
17:59 91.4 °F /  33 °C 55.2 °F /  12.9 °C 29.9in /  1011.1hPa Este 7.5mph /  12km/h 12mph /  19.3km/h 29.5% 0in /  0.0mm
18:04 91.8 °F /  33.2 °C 55.9 °F /  13.3 °C 29.9in /  1011.1hPa ESE 5.9mph /  9.5km/h 12.7mph /  20.4km/h 30% 0in /  0.0mm
18:09 91.6 °F /  33.1 °C 55.9 °F /  13.3 °C 29.9in /  1011.0hPa ESE 6.3mph /  10.1km/h 13mph /  20.9km/h 30.2% 0in /  0.0mm
18:14 91.4 °F /  33 °C 55.8 °F /  13.2 °C 29.9in /  1011.0hPa Este 7.4mph /  11.9km/h 12mph /  19.3km/h 30.3% 0in /  0.0mm
18:19 91.2 °F /  32.9 °C 55.4 °F /  13 °C 29.9in /  1011.0hPa ESE 7.1mph /  11.5km/h 12.7mph /  20.4km/h 29.9% 0in /  0.0mm
18:24 91.2 °F /  32.9 °C 55.6 °F /  13.1 °C 29.9in /  1010.9hPa Este 6.4mph /  10.3km/h 13mph /  20.9km/h 30% 0in /  0.0mm
18:29 91.2 °F /  32.9 °C 55 °F /  12.8 °C 29.9in /  1010.9hPa Este 6.5mph /  10.5km/h 11.8mph /  19km/h 29.5% 0in /  0.0mm
18:34 91 °F /  32.8 °C 55.6 °F /  13.1 °C 29.9in /  1010.9hPa ENE 6.9mph /  11.1km/h 13mph /  20.9km/h 30.2% 0in /  0.0mm
18:39 90.9 °F /  32.7 °C 55.6 °F /  13.1 °C 29.9in /  1010.9hPa Este 7mph /  11.3km/h 15.2mph /  24.5km/h 30.4% 0in /  0.0mm
18:44 90.7 °F /  32.6 °C 55.4 °F /  13 °C 29.9in /  1010.9hPa NE 7.4mph /  11.9km/h 17.3mph /  27.8km/h 30.5% 0in /  0.0mm
18:49 90 °F /  32.2 °C 55.2 °F /  12.9 °C 29.9in /  1010.9hPa NE 8.1mph /  13km/h 17.3mph /  27.8km/h 30.9% 0in /  0.0mm
18:54 90.1 °F /  32.3 °C 54.5 °F /  12.5 °C 29.9in /  1010.8hPa NE 10mph /  16.1km/h 16.1mph /  25.9km/h 30% 0in /  0.0mm
18:59 90.1 °F /  32.3 °C 54.5 °F /  12.5 °C 29.9in /  1010.8hPa NE 10mph /  16.1km/h 16.1mph /  25.9km/h 30% 0in /  0.0mm
19:04 90 °F /  32.2 °C 54.9 °F /  12.7 °C 29.9in /  1010.8hPa NE 10mph /  16.1km/h 16mph /  25.7km/h 30.5% 0in /  0.0mm
19:09 90.1 °F /  32.3 °C 55.2 °F /  12.9 °C 29.9in /  1010.8hPa NE 9.8mph /  15.8km/h 15.2mph /  24.5km/h 30.9% 0in /  0.0mm
19:14 90 °F /  32.2 °C 54.5 °F /  12.5 °C 29.9in /  1010.8hPa NE 9.2mph /  14.8km/h 16.1mph /  25.9km/h 30.2% 0in /  0.0mm
19:19 90 °F /  32.2 °C 54.3 °F /  12.4 °C 29.9in /  1011.0hPa NE 9.4mph /  15.1km/h 17.3mph /  27.8km/h 29.9% 0in /  0.0mm
19:24 89.8 °F /  32.1 °C 54.9 °F /  12.7 °C 29.9in /  1011.0hPa NE 10mph /  16.1km/h 17mph /  27.4km/h 30.7% 0in /  0.0mm
19:29 89.8 °F /  32.1 °C 55.2 °F /  12.9 °C 29.9in /  1011.0hPa NE 9.6mph /  15.5km/h 15.2mph /  24.5km/h 31% 0in /  0.0mm
19:34 89.8 °F /  32.1 °C 56.1 °F /  13.4 °C 29.9in /  1011.0hPa NE 8.5mph /  13.7km/h 16.1mph /  25.9km/h 32.1% 0in /  0.0mm
19:39 89.6 °F /  32 °C 56.3 °F /  13.5 °C 29.9in /  1010.9hPa ENE 8.3mph /  13.3km/h 16mph /  25.7km/h 32.5% 0in /  0.0mm
19:44 90 °F /  32.2 °C 55.4 °F /  13 °C 29.9in /  1010.9hPa ENE 7.6mph /  12.2km/h 10.7mph /  17.2km/h 31.2% 0in /  0.0mm
19:49 90 °F /  32.2 °C 54.9 °F /  12.7 °C 29.9in /  1011.1hPa Este 7.1mph /  11.5km/h 11.5mph /  18.5km/h 30.6% 0in /  0.0mm
19:54 89.6 °F /  32 °C 54.7 °F /  12.6 °C 29.9in /  1011.1hPa Este 5.9mph /  9.5km/h 13.8mph /  22.2km/h 30.8% 0in /  0.0mm
19:59 89.2 °F /  31.8 °C 54.7 °F /  12.6 °C 29.9in /  1011.1hPa Este 6.3mph /  10.2km/h 14mph /  22.5km/h 31% 0in /  0.0mm
20:04 89.2 °F /  31.8 °C 55.2 °F /  12.9 °C 29.9in /  1011.1hPa Este 7.4mph /  11.9km/h 11mph /  17.7km/h 31.8% 0in /  0.0mm
20:09 89.1 °F /  31.7 °C 55.9 °F /  13.3 °C 29.9in /  1011.1hPa ESE 7.1mph /  11.5km/h 11.5mph /  18.5km/h 32.8% 0in /  0.0mm
20:14 88.7 °F /  31.5 °C 55.9 °F /  13.3 °C 29.9in /  1011.1hPa ESE 6.4mph /  10.3km/h 12.7mph /  20.4km/h 33% 0in /  0.0mm
20:19 88.3 °F /  31.3 °C 56.3 °F /  13.5 °C 29.9in /  1011.4hPa Este 6.3mph /  10.2km/h 13mph /  20.9km/h 33.9% 0in /  0.0mm
20:24 88.2 °F /  31.2 °C 58.3 °F /  14.6 °C 29.9in /  1011.4hPa ENE 6.2mph /  10km/h 9mph /  14.5km/h 36.7% 0in /  0.0mm
20:29 87.6 °F /  30.9 °C 58.8 °F /  14.9 °C 29.9in /  1011.4hPa ENE 5.9mph /  9.5km/h 7mph /  11.3km/h 37.8% 0in /  0.0mm
20:34 87.4 °F /  30.8 °C 59 °F /  15 °C 29.9in /  1011.5hPa ENE 4.7mph /  7.6km/h 11.5mph /  18.5km/h 38.3% 0in /  0.0mm
20:39 86.9 °F /  30.5 °C 58.8 °F /  14.9 °C 29.9in /  1011.5hPa ENE 5mph /  8km/h 12mph /  19.3km/h 39% 0in /  0.0mm
20:44 86.5 °F /  30.3 °C 58.8 °F /  14.9 °C 29.9in /  1011.5hPa ENE 5.9mph /  9.5km/h 10mph /  16.1km/h 39.4% 0in /  0.0mm
20:49 86.2 °F /  30.1 °C 59.4 °F /  15.2 °C 29.9in /  1011.7hPa ENE 5.7mph /  9.2km/h 9.7mph /  15.6km/h 40.5% 0in /  0.0mm
20:54 85.6 °F /  29.8 °C 59.4 °F /  15.2 °C 29.9in /  1011.7hPa ENE 5.2mph /  8.4km/h 10.7mph /  17.2km/h 41% 0in /  0.0mm
20:59 85.5 °F /  29.7 °C 59.2 °F /  15.1 °C 29.9in /  1011.7hPa ENE 4.9mph /  7.9km/h 11mph /  17.7km/h 41% 0in /  0.0mm
21:04 85.3 °F /  29.6 °C 59.2 °F /  15.1 °C 29.9in /  1011.9hPa NE 4.3mph /  6.9km/h 9.2mph /  14.8km/h 41.6% 0in /  0.0mm
21:09 84.7 °F /  29.3 °C 58.5 °F /  14.7 °C 29.9in /  1011.9hPa ENE 4.5mph /  7.3km/h 11.2mph /  18km/h 41% 0in /  0.0mm
21:14 84.6 °F /  29.2 °C 58.5 °F /  14.7 °C 29.9in /  1011.9hPa Este 5.2mph /  8.4km/h 12mph /  19.3km/h 41.2% 0in /  0.0mm
21:19 84.4 °F /  29.1 °C 58.1 °F /  14.5 °C 29.9in /  1012.2hPa ESE 5mph /  8.1km/h 7.4mph /  11.9km/h 41% 0in /  0.0mm
21:24 83.8 °F /  28.8 °C 57.9 °F /  14.4 °C 29.9in /  1012.2hPa ESE 4.7mph /  7.6km/h 9.2mph /  14.8km/h 41.3% 0in /  0.0mm
21:29 83.8 °F /  28.8 °C 57.6 °F /  14.2 °C 29.9in /  1012.2hPa ESE 4.6mph /  7.4km/h 9mph /  14.5km/h 41% 0in /  0.0mm
21:34 83.7 °F /  28.7 °C 57.9 °F /  14.4 °C 29.9in /  1012.2hPa ESE 4.3mph /  6.9km/h 8.1mph /  13km/h 41.6% 0in /  0.0mm
21:39 83.3 °F /  28.5 °C 58.8 °F /  14.9 °C 29.9in /  1012.2hPa Este 4.4mph /  7.1km/h 8.7mph /  14km/h 43.6% 0in /  0.0mm
21:44 82.9 °F /  28.3 °C 59.5 °F /  15.3 °C 29.9in /  1012.2hPa ENE 4.7mph /  7.6km/h 9.2mph /  14.8km/h 45.2% 0in /  0.0mm
21:49 82.8 °F /  28.2 °C 60.3 °F /  15.7 °C 29.9in /  1012.4hPa Este 4.7mph /  7.6km/h 9.2mph /  14.8km/h 46.9% 0in /  0.0mm
21:54 82.2 °F /  27.9 °C 61 °F /  16.1 °C 29.9in /  1012.4hPa Este 4.7mph /  7.6km/h 9mph /  14.5km/h 48.6% 0in /  0.0mm
21:59 81.9 °F /  27.7 °C 61.3 °F /  16.3 °C 29.9in /  1012.4hPa ENE 4.6mph /  7.4km/h 9mph /  14.5km/h 49.8% 0in /  0.0mm
22:04 81.7 °F /  27.6 °C 61.7 °F /  16.5 °C 29.9in /  1012.6hPa ENE 4.3mph /  6.9km/h 7mph /  11.3km/h 50.7% 0in /  0.0mm
22:09 81.3 °F /  27.4 °C 62.4 °F /  16.9 °C 29.9in /  1012.6hPa Este 4.4mph /  7.1km/h 10.4mph /  16.7km/h 52.7% 0in /  0.0mm
22:14 81.1 °F /  27.3 °C 63.3 °F /  17.4 °C 29.9in /  1012.6hPa Este 4.7mph /  7.6km/h 10.4mph /  16.7km/h 54.9% 0in /  0.0mm
22:19 80.8 °F /  27.1 °C 63.9 °F /  17.7 °C 29.9in /  1012.7hPa Este 4.9mph /  7.9km/h 10.2mph /  16.4km/h 56.4% 0in /  0.0mm
22:24 80.4 °F /  26.9 °C 63.7 °F /  17.6 °C 29.9in /  1012.7hPa ENE 5.4mph /  8.7km/h 11.5mph /  18.5km/h 56.8% 0in /  0.0mm
22:29 80.2 °F /  26.8 °C 63.1 °F /  17.3 °C 29.9in /  1012.7hPa NE 5.4mph /  8.7km/h 12mph /  19.3km/h 56.1% 0in /  0.0mm
22:34 80.1 °F /  26.7 °C 63 °F /  17.2 °C 29.9in /  1012.9hPa NE 5.4mph /  8.7km/h 9mph /  14.5km/h 56.1% 0in /  0.0mm
22:39 80.1 °F /  26.7 °C 63.7 °F /  17.6 °C 29.9in /  1012.9hPa NE 5.2mph /  8.4km/h 8mph /  12.9km/h 57.3% 0in /  0.0mm
22:44 79.7 °F /  26.5 °C 63.7 °F /  17.6 °C 29.9in /  1012.9hPa NE 4.7mph /  7.6km/h 7.4mph /  11.9km/h 58.3% 0in /  0.0mm
22:49 79.3 °F /  26.3 °C 63.9 °F /  17.7 °C 29.9in /  1013.1hPa NE 4.6mph /  7.4km/h 7.4mph /  11.9km/h 59% 0in /  0.0mm
22:54 79.2 °F /  26.2 °C 64.2 °F /  17.9 °C 29.9in /  1013.1hPa NE 4.3mph /  6.9km/h 8.5mph /  13.7km/h 60.1% 0in /  0.0mm
22:59 79 °F /  26.1 °C 64.8 °F /  18.2 °C 29.9in /  1013.1hPa NE 4.6mph /  7.4km/h 9.2mph /  14.8km/h 61.6% 0in /  0.0mm
23:04 78.6 °F /  25.9 °C 64.9 °F /  18.3 °C 29.9in /  1013.2hPa NE 5.2mph /  8.4km/h 9.7mph /  15.6km/h 62.9% 0in /  0.0mm
23:09 78.3 °F /  25.7 °C 65.1 °F /  18.4 °C 29.9in /  1013.2hPa NE 5.3mph /  8.5km/h 10mph /  16.1km/h 64% 0in /  0.0mm
23:14 78.3 °F /  25.7 °C 65.3 °F /  18.5 °C 29.9in /  1013.2hPa NE 5.4mph /  8.7km/h 9mph /  14.5km/h 64.7% 0in /  0.0mm
23:19 78.1 °F /  25.6 °C 65.5 °F /  18.6 °C 29.9in /  1013.4hPa NE 5.3mph /  8.6km/h 9mph /  14.5km/h 65.1% 0in /  0.0mm
23:24 77.7 °F /  25.4 °C 65.7 °F /  18.7 °C 29.9in /  1013.4hPa NE 5.2mph /  8.4km/h 10.4mph /  16.7km/h 66.3% 0in /  0.0mm
23:29 77.5 °F /  25.3 °C 65.8 °F /  18.8 °C 29.9in /  1013.4hPa NE 5.4mph /  8.7km/h 10mph /  16.1km/h 67.3% 0in /  0.0mm
23:34 77.4 °F /  25.2 °C 66.2 °F /  19 °C 29.9in /  1013.4hPa NE 5.9mph /  9.5km/h 9mph /  14.5km/h 68.5% 0in /  0.0mm
23:39 77.4 °F /  25.2 °C 66.6 °F /  19.2 °C 29.9in /  1013.4hPa NE 5.9mph /  9.5km/h 10.4mph /  16.7km/h 69.5% 0in /  0.0mm
23:44 77 °F /  25 °C 66.7 °F /  19.3 °C 29.9in /  1013.4hPa NE 5.9mph /  9.5km/h 11.8mph /  19km/h 70.5% 0in /  0.0mm
23:49 76.8 °F /  24.9 °C 66.7 °F /  19.3 °C 29.9in /  1013.4hPa NE 6.3mph /  10.2km/h 12mph /  19.3km/h 71.1% 0in /  0.0mm
23:54 76.8 °F /  24.9 °C 67.1 °F /  19.5 °C 29.9in /  1013.4hPa NE 7.6mph /  12.2km/h 12mph /  19.3km/h 72% 0in /  0.0mm
23:59 76.8 °F /  24.9 °C 67.1 °F /  19.5 °C 29.9in /  1013.4hPa NE 7.3mph /  11.7km/h 12mph /  19.3km/h 72% 0in /  0.0mm
Murcia-Puente Tocinos, España
Compliments of Weather Underground - 2.75 mb

La estación de MeteoMurcia.com, publica sus datos en los siguientes proyectos:

Weather Underground PWS IMURCIAP2 Meteoclimatic www.awekas.at

W3Counter
Web Analytics